sensor_id;sensor_type;location;lat;lon;timestamp;pressure;altitude;pressure_sealevel;temperature;humidity
60049;BME280;66154;45.544;6.756;2023-07-29T00:03:31;-18115.00;;;-145.92;100.00
60049;BME280;66154;45.544;6.756;2023-07-29T00:08:32;-18115.00;;;-145.92;100.00
60049;BME280;66154;45.544;6.756;2023-07-29T00:13:32;-18115.00;;;-145.92;100.00
60049;BME280;66154;45.544;6.756;2023-07-29T00:18:33;-18115.00;;;-145.92;100.00
60049;BME280;66154;45.544;6.756;2023-07-29T00:23:34;-18115.00;;;-145.92;100.00
60049;BME280;66154;45.544;6.756;2023-07-29T00:28:34;-18115.00;;;-145.92;100.00
60049;BME280;66154;45.544;6.756;2023-07-29T00:33:35;-18115.00;;;-145.92;100.00
60049;BME280;66154;45.544;6.756;2023-07-29T00:38:35;-18115.00;;;-145.92;100.00
60049;BME280;66154;45.544;6.756;2023-07-29T00:43:36;-18115.00;;;-145.92;100.00
60049;BME280;66154;45.544;6.756;2023-07-29T00:48:37;-18115.00;;;-145.92;100.00
60049;BME280;66154;45.544;6.756;2023-07-29T00:53:37;-18115.00;;;-145.92;100.00
60049;BME280;66154;45.544;6.756;2023-07-29T00:58:38;-18115.00;;;-145.92;100.00
60049;BME280;66154;45.544;6.756;2023-07-29T01:03:38;-18115.00;;;-145.92;100.00
60049;BME280;66154;45.544;6.756;2023-07-29T01:14:02;-18115.00;;;-145.92;100.00
60049;BME280;66154;45.544;6.756;2023-07-29T01:19:06;-18115.00;;;-145.92;100.00
60049;BME280;66154;45.544;6.756;2023-07-29T01:24:09;-18115.00;;;-145.92;100.00
60049;BME280;66154;45.544;6.756;2023-07-29T01:29:10;-18115.00;;;-145.92;100.00
60049;BME280;66154;45.544;6.756;2023-07-29T01:34:21;-18115.00;;;-145.92;100.00
60049;BME280;66154;45.544;6.756;2023-07-29T01:39:26;-18115.00;;;-145.92;100.00
60049;BME280;66154;45.544;6.756;2023-07-29T01:44:29;-18115.00;;;-145.92;100.00
60049;BME280;66154;45.544;6.756;2023-07-29T01:49:30;-18115.00;;;-145.92;100.00
60049;BME280;66154;45.544;6.756;2023-07-29T01:54:30;-18115.00;;;-145.92;100.00
60049;BME280;66154;45.544;6.756;2023-07-29T01:59:31;-18115.00;;;-145.92;100.00
60049;BME280;66154;45.544;6.756;2023-07-29T02:04:31;-18115.00;;;-145.92;100.00
60049;BME280;66154;45.544;6.756;2023-07-29T02:09:32;-18115.00;;;-145.92;100.00
60049;BME280;66154;45.544;6.756;2023-07-29T02:14:32;-18115.00;;;-145.92;100.00
60049;BME280;66154;45.544;6.756;2023-07-29T02:19:33;-18115.00;;;-145.92;100.00
60049;BME280;66154;45.544;6.756;2023-07-29T02:24:33;-18115.00;;;-145.92;100.00
60049;BME280;66154;45.544;6.756;2023-07-29T02:29:34;-18115.00;;;-145.92;100.00
60049;BME280;66154;45.544;6.756;2023-07-29T02:34:35;-18115.00;;;-145.92;100.00
60049;BME280;66154;45.544;6.756;2023-07-29T02:39:35;-18115.00;;;-145.92;100.00
60049;BME280;66154;45.544;6.756;2023-07-29T02:44:36;-18115.00;;;-145.92;100.00
60049;BME280;66154;45.544;6.756;2023-07-29T02:49:36;-18115.00;;;-145.92;100.00
60049;BME280;66154;45.544;6.756;2023-07-29T02:54:36;-18115.00;;;-145.92;100.00
60049;BME280;66154;45.544;6.756;2023-07-29T02:59:37;-18115.00;;;-145.92;100.00
60049;BME280;66154;45.544;6.756;2023-07-29T03:04:38;-18115.00;;;-145.92;100.00
60049;BME280;66154;45.544;6.756;2023-07-29T03:09:38;-18115.00;;;-145.92;100.00
60049;BME280;66154;45.544;6.756;2023-07-29T03:14:39;-18115.00;;;-145.92;100.00
60049;BME280;66154;45.544;6.756;2023-07-29T03:19:41;-18115.00;;;-145.92;100.00
60049;BME280;66154;45.544;6.756;2023-07-29T03:24:42;-18115.00;;;-145.92;100.00
60049;BME280;66154;45.544;6.756;2023-07-29T03:29:42;-18115.00;;;-145.92;100.00
60049;BME280;66154;45.544;6.756;2023-07-29T03:34:43;-18055.88;;;-145.92;100.00
60049;BME280;66154;45.544;6.756;2023-07-29T03:39:43;-17701.97;;;-145.92;100.00
60049;BME280;66154;45.544;6.756;2023-07-29T03:44:44;-17786.59;;;-145.92;100.00
60049;BME280;66154;45.544;6.756;2023-07-29T03:49:44;-14361.25;;;-145.92;100.00
60049;BME280;66154;45.544;6.756;2023-07-29T03:54:45;-16578.44;;;-145.92;100.00
60049;BME280;66154;45.544;6.756;2023-07-29T03:59:45;-13822.16;;;-145.92;100.00
60049;BME280;66154;45.544;6.756;2023-07-29T04:04:46;-17063.28;;;-145.92;100.00
60049;BME280;66154;45.544;6.756;2023-07-29T04:09:48;-16395.66;;;-145.92;100.00
60049;BME280;66154;45.544;6.756;2023-07-29T04:14:49;-16834.34;;;-145.92;100.00
60049;BME280;66154;45.544;6.756;2023-07-29T04:19:49;-14334.28;;;-145.92;100.00
60049;BME280;66154;45.544;6.756;2023-07-29T04:24:50;-16690.03;;;-145.92;100.00
60049;BME280;66154;45.544;6.756;2023-07-29T04:29:50;-16058.91;;;-145.92;100.00
60049;BME280;66154;45.544;6.756;2023-07-29T04:34:51;-16701.59;;;-145.92;100.00
60049;BME280;66154;45.544;6.756;2023-07-29T04:39:51;-14881.03;;;-145.92;100.00
60049;BME280;66154;45.544;6.756;2023-07-29T04:44:52;-15046.56;;;-145.92;100.00
60049;BME280;66154;45.544;6.756;2023-07-29T04:49:52;-15346.84;;;-145.92;100.00
60049;BME280;66154;45.544;6.756;2023-07-29T04:54:53;-16230.19;;;-145.92;100.00
60049;BME280;66154;45.544;6.756;2023-07-29T04:59:53;-11587.94;;;-145.92;100.00
60049;BME280;66154;45.544;6.756;2023-07-29T05:04:54;-17323.00;;;-145.92;100.00
60049;BME280;66154;45.544;6.756;2023-07-29T05:09:54;-15600.88;;;-145.92;100.00
60049;BME280;66154;45.544;6.756;2023-07-29T05:14:55;-16711.22;;;-145.92;100.00
60049;BME280;66154;45.544;6.756;2023-07-29T05:19:55;-12447.09;;;-145.92;100.00
60049;BME280;66154;45.544;6.756;2023-07-29T05:24:56;-14744.34;;;-145.92;100.00
60049;BME280;66154;45.544;6.756;2023-07-29T05:29:56;-12439.41;;;-145.92;100.00
60049;BME280;66154;45.544;6.756;2023-07-29T05:34:57;-10406.75;;;-145.92;100.00
60049;BME280;66154;45.544;6.756;2023-07-29T05:39:58;-10142.72;;;-145.92;100.00
60049;BME280;66154;45.544;6.756;2023-07-29T05:44:58;-9493.16;;;-145.92;100.00
60049;BME280;66154;45.544;6.756;2023-07-29T05:49:59;-9327.34;;;-145.92;100.00
60049;BME280;66154;45.544;6.756;2023-07-29T05:55:02;-10196.69;;;-145.92;100.00
60049;BME280;66154;45.544;6.756;2023-07-29T06:00:03;-9899.84;;;-145.92;100.00
60049;BME280;66154;45.544;6.756;2023-07-29T06:05:04;-9225.19;;;-145.92;100.00
60049;BME280;66154;45.544;6.756;2023-07-29T06:10:05;-7921.78;;;-145.92;100.00
60049;BME280;66154;45.544;6.756;2023-07-29T06:15:06;-8845.41;;;-145.92;100.00
60049;BME280;66154;45.544;6.756;2023-07-29T06:20:07;-10314.25;;;-145.92;100.00
60049;BME280;66154;45.544;6.756;2023-07-29T06:25:07;-9198.19;;;-145.92;100.00
60049;BME280;66154;45.544;6.756;2023-07-29T06:30:08;-7129.09;;;-145.92;100.00
60049;BME280;66154;45.544;6.756;2023-07-29T06:35:09;-6876.41;;;-145.92;100.00
60049;BME280;66154;45.544;6.756;2023-07-29T06:40:10;-6945.84;;;-145.92;100.00
60049;BME280;66154;45.544;6.756;2023-07-29T06:45:10;-6720.16;;;-145.92;100.00
60049;BME280;66154;45.544;6.756;2023-07-29T06:50:11;-8641.03;;;-145.92;100.00
60049;BME280;66154;45.544;6.756;2023-07-29T06:55:12;-7964.19;;;-145.92;100.00
60049;BME280;66154;45.544;6.756;2023-07-29T07:00:13;-7161.88;;;-145.92;100.00
60049;BME280;66154;45.544;6.756;2023-07-29T07:05:14;-7929.50;;;-145.92;100.00
60049;BME280;66154;45.544;6.756;2023-07-29T07:10:14;-8828.03;;;-145.92;100.00
60049;BME280;66154;45.544;6.756;2023-07-29T07:15:15;-5761.31;;;-145.92;100.00
60049;BME280;66154;45.544;6.756;2023-07-29T07:20:16;-4456.72;;;-145.92;100.00
60049;BME280;66154;45.544;6.756;2023-07-29T07:25:16;-7632.50;;;-145.92;100.00
60049;BME280;66154;45.544;6.756;2023-07-29T07:30:17;-7755.94;;;-145.92;100.00
60049;BME280;66154;45.544;6.756;2023-07-29T07:35:17;2040.00;;;-145.92;100.00
60049;BME280;66154;45.544;6.756;2023-07-29T07:40:19;-5603.06;;;-145.92;100.00
60049;BME280;66154;45.544;6.756;2023-07-29T07:45:19;-5527.81;;;-145.92;100.00
60049;BME280;66154;45.544;6.756;2023-07-29T07:50:20;104983.03;;;-145.92;100.00
60049;BME280;66154;45.544;6.756;2023-07-29T07:55:20;106451.72;;;-145.92;100.00
60049;BME280;66154;45.544;6.756;2023-07-29T08:00:21;106451.72;;;-145.92;100.00
60049;BME280;66154;45.544;6.756;2023-07-29T08:05:21;107214.09;;;-145.92;100.00
60049;BME280;66154;45.544;6.756;2023-07-29T08:10:22;106705.84;;;-145.92;100.00
60049;BME280;66154;45.544;6.756;2023-07-29T08:15:22;107976.56;;;-145.92;100.00
60049;BME280;66154;45.544;6.756;2023-07-29T08:20:23;107976.56;;;-145.92;100.00
60049;BME280;66154;45.544;6.756;2023-07-29T08:25:24;99850.69;;;-145.92;100.00
60049;BME280;66154;45.544;6.756;2023-07-29T08:30:24;107722.41;;;-145.92;100.00
60049;BME280;66154;45.544;6.756;2023-07-29T08:35:25;106705.84;;;-145.92;100.00
60049;BME280;66154;45.544;6.756;2023-07-29T08:40:29;107468.22;;;-145.92;100.00
60049;BME280;66154;45.544;6.756;2023-07-29T08:45:33;87755.59;;;-145.92;100.00
60049;BME280;66154;45.544;6.756;2023-07-29T08:50:36;107468.22;;;-145.92;100.00
60049;BME280;66154;45.544;6.756;2023-07-29T08:55:37;107976.56;;;-145.92;100.00
60049;BME280;66154;45.544;6.756;2023-07-29T09:00:38;75732.16;;;-145.92;100.00
60049;BME280;66154;45.544;6.756;2023-07-29T09:05:39;106959.94;;;-145.92;100.00
60049;BME280;66154;45.544;6.756;2023-07-29T09:10:40;107214.09;;;-145.92;100.00
60049;BME280;66154;45.544;6.756;2023-07-29T09:15:42;107563.53;;;-145.92;100.00
60049;BME280;66154;45.544;6.756;2023-07-29T09:20:43;104673.47;;;-145.92;100.00
60049;BME280;66154;45.544;6.756;2023-07-29T09:25:45;105689.53;;;-145.92;100.00
60049;BME280;66154;45.544;6.756;2023-07-29T09:30:46;104419.50;;;-145.92;100.00
60049;BME280;66154;45.544;6.756;2023-07-29T09:35:47;102642.13;;;-145.92;100.00
60049;BME280;66154;45.544;6.756;2023-07-29T09:40:48;107214.09;;;-145.92;100.00
60049;BME280;66154;45.544;6.756;2023-07-29T09:45:51;106451.72;;;-145.92;100.00
60049;BME280;66154;45.544;6.756;2023-07-29T09:50:52;105435.50;;;-145.92;100.00
60049;BME280;66154;45.544;6.756;2023-07-29T09:55:53;104419.50;;;-145.92;100.00
60049;BME280;66154;45.544;6.756;2023-07-29T10:00:54;106959.94;;;-145.92;100.00
60049;BME280;66154;45.544;6.756;2023-07-29T10:05:55;106410.06;;;-145.92;100.00
60049;BME280;66154;45.544;6.756;2023-07-29T10:10:55;105181.47;;;-145.92;100.00
60049;BME280;66154;45.544;6.756;2023-07-29T10:15:57;105181.47;;;-145.92;100.00
60049;BME280;66154;45.544;6.756;2023-07-29T10:20:59;102959.47;;;-145.92;100.00
60049;BME280;66154;45.544;6.756;2023-07-29T10:26:05;104590.13;;;-145.92;100.00
60049;BME280;66154;45.544;6.756;2023-07-29T10:31:06;101626.84;;;-145.92;100.00
60049;BME280;66154;45.544;6.756;2023-07-29T10:36:07;103657.69;;;-145.92;100.00
60049;BME280;66154;45.544;6.756;2023-07-29T10:41:08;103403.78;;;-145.92;100.00
60049;BME280;66154;45.544;6.756;2023-07-29T10:46:19;101373.06;;;-145.92;100.00
60049;BME280;66154;45.544;6.756;2023-07-29T10:51:34;102388.28;;;-145.92;100.00
60049;BME280;66154;45.544;6.756;2023-07-29T10:56:36;99089.72;;;-145.92;100.00
60049;BME280;66154;45.544;6.756;2023-07-29T11:01:38;103657.69;;;-145.92;100.00
60049;BME280;66154;45.544;6.756;2023-07-29T11:17:44;100611.81;;;-145.92;100.00
60049;BME280;66154;45.544;6.756;2023-07-29T11:22:45;97568.22;;;-145.92;100.00
60049;BME280;66154;45.544;6.756;2023-07-29T11:27:45;97314.69;;;-145.92;100.00
60049;BME280;66154;45.544;6.756;2023-07-29T11:32:46;101626.84;;;-145.92;100.00
60049;BME280;66154;45.544;6.756;2023-07-29T11:37:49;97061.19;;;-145.92;100.00
60049;BME280;66154;45.544;6.756;2023-07-29T11:42:51;98582.50;;;-145.92;100.00
60049;BME280;66154;45.544;6.756;2023-07-29T11:47:52;98836.09;;;-145.92;100.00
60049;BME280;66154;45.544;6.756;2023-07-29T11:52:53;96554.19;;;-145.92;100.00
60049;BME280;66154;45.544;6.756;2023-07-29T11:57:54;96047.28;;;-145.92;100.00
60049;BME280;66154;45.544;6.756;2023-07-29T12:02:55;97821.75;;;-145.92;100.00
60049;BME280;66154;45.544;6.756;2023-07-29T12:07:56;96300.72;;;-145.92;100.00
60049;BME280;66154;45.544;6.756;2023-07-29T12:14:22;95033.66;;;-145.92;100.00
60049;BME280;66154;45.544;6.756;2023-07-29T12:19:35;90981.63;;;-145.92;100.00
60049;BME280;66154;45.544;6.756;2023-07-29T12:24:38;78849.97;;;-145.92;100.00
60049;BME280;66154;45.544;6.756;2023-07-29T12:29:43;83395.06;;;-145.92;100.00
60049;BME280;66154;45.544;6.756;2023-07-29T12:34:44;80869.38;;;-145.92;100.00
60049;BME280;66154;45.544;6.756;2023-07-29T12:39:45;87945.28;;;-145.92;100.00
60049;BME280;66154;45.544;6.756;2023-07-29T12:44:45;86933.69;;;-145.92;100.00
60049;BME280;66154;45.544;6.756;2023-07-29T12:49:46;91741.06;;;-145.92;100.00
60049;BME280;66154;45.544;6.756;2023-07-29T12:54:46;93513.66;;;-145.92;100.00
60049;BME280;66154;45.544;6.756;2023-07-29T12:59:47;90728.50;;;-145.92;100.00
60049;BME280;66154;45.544;6.756;2023-07-29T13:04:47;74906.78;;;-145.92;100.00
60049;BME280;66154;45.544;6.756;2023-07-29T13:09:48;80451.22;;;-145.92;100.00
60049;BME280;66154;45.544;6.756;2023-07-29T13:14:48;81025.19;;;-145.92;100.00
60049;BME280;66154;45.544;6.756;2023-07-29T13:19:49;24612.97;;;-145.92;100.00
60049;BME280;66154;45.544;6.756;2023-07-29T13:24:49;37239.09;;;-145.92;100.00
60049;BME280;66154;45.544;6.756;2023-07-29T13:29:50;-7117.53;;;-145.92;100.00
60049;BME280;66154;45.544;6.756;2023-07-29T13:34:51;-10133.06;;;-145.92;100.00
60049;BME280;66154;45.544;6.756;2023-07-29T13:39:51;-12899.72;;;-145.92;100.00
60049;BME280;66154;45.544;6.756;2023-07-29T13:44:52;-13745.13;;;-145.92;100.00
60049;BME280;66154;45.544;6.756;2023-07-29T13:49:52;-13438.97;;;-145.92;100.00
60049;BME280;66154;45.544;6.756;2023-07-29T13:54:53;-1490.78;;;-145.92;100.00
60049;BME280;66154;45.544;6.756;2023-07-29T13:59:53;-8729.72;;;-145.92;100.00
60049;BME280;66154;45.544;6.756;2023-07-29T14:04:54;-4138.22;;;-145.92;100.00
60049;BME280;66154;45.544;6.756;2023-07-29T14:09:54;452.97;;;-145.92;100.00
60049;BME280;66154;45.544;6.756;2023-07-29T14:14:55;-9182.78;;;-145.92;100.00
60049;BME280;66154;45.544;6.756;2023-07-29T14:19:55;3167.38;;;-145.92;100.00
60049;BME280;66154;45.544;6.756;2023-07-29T14:24:56;-8114.63;;;-145.92;100.00
60049;BME280;66154;45.544;6.756;2023-07-29T14:29:56;84153.06;;;-145.92;100.00
60049;BME280;66154;45.544;6.756;2023-07-29T14:34:57;77840.66;;;-145.92;100.00
60049;BME280;66154;45.544;6.756;2023-07-29T14:39:58;76579.34;;;-145.92;100.00
60049;BME280;66154;45.544;6.756;2023-07-29T14:44:59;95540.44;;;-145.92;100.00
60049;BME280;66154;45.544;6.756;2023-07-29T14:49:59;94526.91;;;-145.92;100.00
60049;BME280;66154;45.544;6.756;2023-07-29T14:55:00;94020.25;;;-145.92;100.00
60049;BME280;66154;45.544;6.756;2023-07-29T15:00:00;94020.25;;;-145.92;100.00
60049;BME280;66154;45.544;6.756;2023-07-29T15:05:01;89992.97;;;-145.92;100.00
60049;BME280;66154;45.544;6.756;2023-07-29T15:10:01;87496.75;;;-145.92;100.00
60049;BME280;66154;45.544;6.756;2023-07-29T15:15:02;82826.63;;;-145.92;100.00
60049;BME280;66154;45.544;6.756;2023-07-29T15:20:03;89969.25;;;-145.92;100.00
60049;BME280;66154;45.544;6.756;2023-07-29T15:25:04;90222.31;;;-145.92;100.00
60049;BME280;66154;45.544;6.756;2023-07-29T15:30:06;-8739.34;;;-145.92;100.00
60049;BME280;66154;45.544;6.756;2023-07-29T15:35:07;-5479.59;;;-145.92;100.00
60049;BME280;66154;45.544;6.756;2023-07-29T15:40:08;-8936.00;;;-145.92;100.00
60049;BME280;66154;45.544;6.756;2023-07-29T15:45:09;-2583.97;;;-145.92;100.00
60049;BME280;66154;45.544;6.756;2023-07-29T15:50:10;78136.31;;;-145.92;100.00
60049;BME280;66154;45.544;6.756;2023-07-29T15:55:11;87439.44;;;-145.92;100.00
60049;BME280;66154;45.544;6.756;2023-07-29T16:00:11;76327.13;;;-145.92;100.00
60049;BME280;66154;45.544;6.756;2023-07-29T16:05:12;59616.25;;;-145.92;100.00
60049;BME280;66154;45.544;6.756;2023-07-29T16:10:12;74057.97;;;-145.92;100.00
60049;BME280;66154;45.544;6.756;2023-07-29T16:15:13;64239.69;;;-145.92;100.00
60049;BME280;66154;45.544;6.756;2023-07-29T16:20:13;74057.97;;;-145.92;100.00
60049;BME280;66154;45.544;6.756;2023-07-29T16:25:14;-1927.34;;;-145.92;100.00
60049;BME280;66154;45.544;6.756;2023-07-29T16:30:14;-2514.44;;;-145.92;100.00
60049;BME280;66154;45.544;6.756;2023-07-29T16:35:16;-7426.13;;;-145.92;100.00
60049;BME280;66154;45.544;6.756;2023-07-29T16:40:17;-3031.97;;;-145.92;100.00
60049;BME280;66154;45.544;6.756;2023-07-29T16:45:17;-1500.44;;;-145.92;100.00
60049;BME280;66154;45.544;6.756;2023-07-29T16:50:18;-277.50;;;-145.92;100.00
60049;BME280;66154;45.544;6.756;2023-07-29T16:55:18;-909.31;;;-145.92;100.00
60049;BME280;66154;45.544;6.756;2023-07-29T17:00:19;-5249.94;;;-145.92;100.00
60049;BME280;66154;45.544;6.756;2023-07-29T17:05:19;-4557.09;;;-145.92;100.00
60049;BME280;66154;45.544;6.756;2023-07-29T17:10:20;-5726.56;;;-145.92;100.00
60049;BME280;66154;45.544;6.756;2023-07-29T17:15:21;-3580.31;;;-145.92;100.00
60049;BME280;66154;45.544;6.756;2023-07-29T17:20:21;-1061.94;;;-145.92;100.00
60049;BME280;66154;45.544;6.756;2023-07-29T17:25:22;-5165.03;;;-145.92;100.00
60049;BME280;66154;45.544;6.756;2023-07-29T17:30:23;-1716.78;;;-145.92;100.00
60049;BME280;66154;45.544;6.756;2023-07-29T17:35:25;-1340.13;;;-145.92;100.00
60049;BME280;66154;45.544;6.756;2023-07-29T17:40:25;-1003.97;;;-145.92;100.00
60049;BME280;66154;45.544;6.756;2023-07-29T17:45:26;-1741.91;;;-145.92;100.00
60049;BME280;66154;45.544;6.756;2023-07-29T17:50:27;-1556.47;;;-145.92;100.00
60049;BME280;66154;45.544;6.756;2023-07-29T17:55:36;-1925.41;;;-145.92;100.00
60049;BME280;66154;45.544;6.756;2023-07-29T18:00:37;-1739.97;;;-145.92;100.00
60049;BME280;66154;45.544;6.756;2023-07-29T18:05:37;-4809.91;;;-145.92;100.00
60049;BME280;66154;45.544;6.756;2023-07-29T18:10:41;-5898.28;;;-145.92;100.00
60049;BME280;66154;45.544;6.756;2023-07-29T18:15:41;-5456.44;;;-145.92;100.00
60049;BME280;66154;45.544;6.756;2023-07-29T18:20:42;-5934.97;;;-145.92;100.00
60049;BME280;66154;45.544;6.756;2023-07-29T18:25:43;-3715.44;;;-145.92;100.00
60049;BME280;66154;45.544;6.756;2023-07-29T18:30:43;-3445.16;;;-145.92;100.00
60049;BME280;66154;45.544;6.756;2023-07-29T18:35:44;-6629.50;;;-145.92;100.00
60049;BME280;66154;45.544;6.756;2023-07-29T18:40:44;-10559.00;;;-145.92;100.00
60049;BME280;66154;45.544;6.756;2023-07-29T18:45:45;-11713.16;;;-145.92;100.00
60049;BME280;66154;45.544;6.756;2023-07-29T18:50:45;-11320.13;;;-145.92;100.00
60049;BME280;66154;45.544;6.756;2023-07-29T18:55:46;-11896.19;;;-145.92;100.00
60049;BME280;66154;45.544;6.756;2023-07-29T19:00:47;-12266.03;;;-145.92;100.00
60049;BME280;66154;45.544;6.756;2023-07-29T19:05:54;-12187.06;;;-145.92;100.00
60049;BME280;66154;45.544;6.756;2023-07-29T19:10:56;-14114.81;;;-145.92;100.00
60049;BME280;66154;45.544;6.756;2023-07-29T19:15:57;-7929.50;;;-145.92;100.00
60049;BME280;66154;45.544;6.756;2023-07-29T19:20:58;-5784.47;;;-145.92;100.00
60049;BME280;66154;45.544;6.756;2023-07-29T19:25:58;-9192.41;;;-145.92;100.00
60049;BME280;66154;45.544;6.756;2023-07-29T19:30:59;-12824.63;;;-145.92;100.00
60049;BME280;66154;45.544;6.756;2023-07-29T19:35:59;-15067.75;;;-145.92;100.00
60049;BME280;66154;45.544;6.756;2023-07-29T19:41:00;-13408.16;;;-145.92;100.00
60049;BME280;66154;45.544;6.756;2023-07-29T19:46:00;-12763.00;;;-145.92;100.00
60049;BME280;66154;45.544;6.756;2023-07-29T19:51:03;-11167.91;;;-145.92;100.00
60049;BME280;66154;45.544;6.756;2023-07-29T19:56:04;-12915.13;;;-145.92;100.00
60049;BME280;66154;45.544;6.756;2023-07-29T20:01:05;-15077.38;;;-145.92;100.00
60049;BME280;66154;45.544;6.756;2023-07-29T20:06:05;-14854.06;;;-145.92;100.00
60049;BME280;66154;45.544;6.756;2023-07-29T20:11:06;-14780.91;;;-145.92;100.00
60049;BME280;66154;45.544;6.756;2023-07-29T20:16:06;-13914.56;;;-145.92;100.00
60049;BME280;66154;45.544;6.756;2023-07-29T20:21:07;-13914.56;;;-145.92;100.00
60049;BME280;66154;45.544;6.756;2023-07-29T20:26:07;-13737.44;;;-145.92;100.00
60049;BME280;66154;45.544;6.756;2023-07-29T20:31:08;-12443.25;;;-145.92;100.00
60049;BME280;66154;45.544;6.756;2023-07-29T20:36:08;-13860.66;;;-145.92;100.00
60049;BME280;66154;45.544;6.756;2023-07-29T20:41:09;-13883.75;;;-145.92;100.00
60049;BME280;66154;45.544;6.756;2023-07-29T20:46:19;-12863.13;;;-145.92;100.00
60049;BME280;66154;45.544;6.756;2023-07-29T20:51:20;-12065.72;;;-145.92;100.00
60049;BME280;66154;45.544;6.756;2023-07-29T20:56:21;-13375.41;;;-145.92;100.00
60049;BME280;66154;45.544;6.756;2023-07-29T21:01:22;-10557.06;;;-145.92;100.00
60049;BME280;66154;45.544;6.756;2023-07-29T21:06:22;-14580.72;;;-145.92;100.00
60049;BME280;66154;45.544;6.756;2023-07-29T21:11:22;-13664.25;;;-145.92;100.00
60049;BME280;66154;45.544;6.756;2023-07-29T21:16:23;-12764.91;;;-145.92;100.00
60049;BME280;66154;45.544;6.756;2023-07-29T21:21:24;-11817.19;;;-145.92;100.00
60049;BME280;66154;45.544;6.756;2023-07-29T21:26:24;-14338.16;;;-145.92;100.00
60049;BME280;66154;45.544;6.756;2023-07-29T21:31:25;-12689.81;;;-145.92;100.00
60049;BME280;66154;45.544;6.756;2023-07-29T21:36:25;-13583.38;;;-145.92;100.00
60049;BME280;66154;45.544;6.756;2023-07-29T21:41:25;-8920.59;;;-145.92;100.00
60049;BME280;66154;45.544;6.756;2023-07-29T21:46:26;-5745.88;;;-145.92;100.00
60049;BME280;66154;45.544;6.756;2023-07-29T21:51:27;7161.25;;;-145.92;100.00
60049;BME280;66154;45.544;6.756;2023-07-29T21:56:27;9756.38;;;-145.92;100.00
60049;BME280;66154;45.544;6.756;2023-07-29T22:01:28;12345.50;;;-145.92;100.00
60049;BME280;66154;45.544;6.756;2023-07-29T22:06:28;8929.22;;;-145.92;100.00
60049;BME280;66154;45.544;6.756;2023-07-29T22:11:29;13299.41;;;-145.92;100.00
60049;BME280;66154;45.544;6.756;2023-07-29T22:16:30;13586.41;;;-145.92;100.00
60049;BME280;66154;45.544;6.756;2023-07-29T22:21:31;12616.91;;;-145.92;100.00
60049;BME280;66154;45.544;6.756;2023-07-29T22:26:31;14816.06;;;-145.92;100.00
60049;BME280;66154;45.544;6.756;2023-07-29T22:31:32;5972.72;;;-145.92;100.00
60049;BME280;66154;45.544;6.756;2023-07-29T22:36:32;15103.19;;;-145.92;100.00
60049;BME280;66154;45.544;6.756;2023-07-29T22:41:33;28837.28;;;-145.92;100.00
60049;BME280;66154;45.544;6.756;2023-07-29T22:46:34;31709.91;;;-145.92;100.00
60049;BME280;66154;45.544;6.756;2023-07-29T22:51:34;33282.50;;;-145.92;100.00
60049;BME280;66154;45.544;6.756;2023-07-29T22:56:35;42309.16;;;-145.92;100.00
60049;BME280;66154;45.544;6.756;2023-07-29T23:01:35;49350.13;;;-145.92;100.00
60049;BME280;66154;45.544;6.756;2023-07-29T23:06:36;52282.81;;;-145.92;100.00
60049;BME280;66154;45.544;6.756;2023-07-29T23:11:36;54392.66;;;-145.92;100.00
60049;BME280;66154;45.544;6.756;2023-07-29T23:16:37;55611.66;;;-145.92;100.00
60049;BME280;66154;45.544;6.756;2023-07-29T23:21:37;56556.56;;;-145.92;100.00
60049;BME280;66154;45.544;6.756;2023-07-29T23:26:38;58798.16;;;-145.92;100.00
60049;BME280;66154;45.544;6.756;2023-07-29T23:31:38;62165.84;;;-145.92;100.00
60049;BME280;66154;45.544;6.756;2023-07-29T23:36:39;64163.06;;;-145.92;100.00
60049;BME280;66154;45.544;6.756;2023-07-29T23:41:39;64931.22;;;-145.92;100.00
60049;BME280;66154;45.544;6.756;2023-07-29T23:46:40;69267.75;;;-145.92;100.00
60049;BME280;66154;45.544;6.756;2023-07-29T23:51:40;75414.97;;;-145.92;100.00
60049;BME280;66154;45.544;6.756;2023-07-29T23:56:41;100683.16;;;-145.92;100.00
